createdAt,value
2018-03-25T00:01:50.822Z,46.50
2018-03-25T00:04:18.472Z,41.83
2018-03-25T00:06:46.471Z,38.40
2018-03-25T00:09:14.082Z,37.40
2018-03-25T00:11:41.701Z,41.47
2018-03-25T00:14:09.311Z,36.77
2018-03-25T00:16:36.934Z,35.23
2018-03-25T00:19:04.701Z,39.73
2018-03-25T00:21:32.286Z,41.07
2018-03-25T00:24:00.353Z,35.93
2018-03-25T00:26:28.298Z,38.63
2018-03-25T00:28:56.465Z,43.90
2018-03-25T00:31:24.406Z,40.33
2018-03-25T00:33:52.501Z,38.57
2018-03-25T00:36:20.790Z,35.30
2018-03-25T00:38:48.432Z,36.37
2018-03-25T00:41:16.080Z,34.27
2018-03-25T00:43:43.941Z,36.50
2018-03-25T00:46:11.608Z,32.77
2018-03-25T00:48:39.451Z,31.47
2018-03-25T00:51:07.041Z,38.60
2018-03-25T00:53:34.749Z,37.43
2018-03-25T00:56:02.774Z,33.90
2018-03-25T00:58:30.740Z,42.53
2018-03-25T01:00:58.706Z,30.10
2018-03-25T01:03:26.293Z,30.80
2018-03-25T01:05:54.238Z,31.37
2018-03-25T01:08:21.930Z,31.93
2018-03-25T01:10:49.528Z,34.13
2018-03-25T01:13:17.496Z,34.33
2018-03-25T01:18:52.044Z,30.20
2018-03-25T01:21:19.702Z,33.83
2018-03-25T01:23:47.309Z,31.93
2018-03-25T01:26:15.198Z,42.03
2018-03-25T01:28:42.803Z,34.43
2018-03-25T01:31:10.402Z,31.27
2018-03-25T01:33:38.215Z,40.33
2018-03-25T01:36:05.866Z,34.63
2018-03-25T01:38:33.469Z,32.53
2018-03-25T01:41:01.051Z,33.27
2018-03-25T01:43:28.667Z,35.43
2018-03-25T01:45:56.733Z,33.83
2018-03-25T01:48:24.331Z,35.67
2018-03-25T01:50:51.929Z,33.83
2018-03-25T01:53:19.542Z,36.40
2018-03-25T01:55:47.254Z,33.90
2018-03-25T01:58:14.913Z,36.13
2018-03-25T02:00:42.536Z,38.30
2018-03-25T02:03:10.192Z,30.03
2018-03-25T02:05:38.160Z,36.70
2018-03-25T02:08:05.850Z,42.53
2018-03-25T02:10:33.689Z,32.23
2018-03-25T02:13:01.348Z,38.97
2018-03-25T02:15:28.935Z,37.03
2018-03-25T02:17:56.627Z,37.17
2018-03-25T02:20:24.238Z,33.07
2018-03-25T02:22:51.901Z,33.67
2018-03-25T02:25:19.886Z,33.50
2018-03-25T02:27:47.569Z,36.70
2018-03-25T02:30:15.215Z,34.57
2018-03-25T02:32:42.843Z,38.40
2018-03-25T02:35:10.432Z,38.40
2018-03-25T02:37:38.138Z,29.20
2018-03-25T02:40:05.770Z,41.03
2018-03-25T02:42:34.131Z,37.30
2018-03-25T02:45:01.707Z,36.70
2018-03-25T02:47:29.330Z,43.27
2018-03-25T02:49:57.074Z,46.47
2018-03-25T02:52:25.190Z,38.17
2018-03-25T02:54:52.788Z,32.90
2018-03-25T02:57:20.428Z,36.93
2018-03-25T02:59:48.028Z,37.13
2018-03-25T03:02:15.785Z,35.43
2018-03-25T03:04:43.379Z,31.67
2018-03-25T03:07:11.264Z,35.60
2018-03-25T03:09:39.178Z,36.20
2018-03-25T03:12:07.045Z,43.73
2018-03-25T03:14:34.714Z,37.27
2018-03-25T03:17:02.345Z,40.93
2018-03-25T03:19:30.192Z,36.97
2018-03-25T03:21:57.856Z,32.20
2018-03-25T03:24:25.853Z,33.57
2018-03-25T03:26:53.586Z,62.00
2018-03-25T03:29:21.556Z,36.50
2018-03-25T03:31:49.454Z,31.23
2018-03-25T03:34:17.052Z,32.00
2018-03-25T03:36:44.738Z,33.20
2018-03-25T03:39:12.631Z,32.53
2018-03-25T03:41:40.657Z,38.17
2018-03-25T03:44:08.246Z,38.47
2018-03-25T03:46:35.914Z,32.53
2018-03-25T03:49:03.561Z,43.13
2018-03-25T03:51:31.443Z,40.57
2018-03-25T03:53:59.316Z,39.20
2018-03-25T03:56:27.282Z,36.27
2018-03-25T03:58:54.873Z,34.43
2018-03-25T04:01:22.816Z,37.43
2018-03-25T04:03:50.473Z,41.47
2018-03-25T04:06:18.079Z,37.83
2018-03-25T04:08:45.708Z,35.17
2018-03-25T04:11:13.414Z,34.00
2018-03-25T04:13:41.033Z,38.77
2018-03-25T04:16:08.614Z,43.13
2018-03-25T04:18:36.338Z,38.27
2018-03-25T04:21:03.977Z,41.70
2018-03-25T04:23:31.637Z,35.60
2018-03-25T04:25:59.540Z,40.90
2018-03-25T04:28:27.203Z,41.07
2018-03-25T04:30:55.272Z,36.43
2018-03-25T04:33:22.866Z,34.20
2018-03-25T04:35:50.505Z,43.00
2018-03-25T04:38:18.104Z,35.73
2018-03-25T04:40:46.124Z,48.10
2018-03-25T04:43:14.200Z,38.57
2018-03-25T04:45:41.784Z,40.13
2018-03-25T04:48:09.400Z,42.27
2018-03-25T04:50:37.288Z,38.73
2018-03-25T04:53:04.874Z,45.77
2018-03-25T04:55:32.524Z,40.67
2018-03-25T04:58:00.131Z,37.70
2018-03-25T05:00:27.870Z,41.90
2018-03-25T05:02:55.474Z,38.17
2018-03-25T05:05:23.055Z,41.50
2018-03-25T05:07:51.031Z,47.57
2018-03-25T05:10:18.740Z,43.23
2018-03-25T05:12:46.339Z,46.10
2018-03-25T05:15:14.323Z,40.30
2018-03-25T05:17:42.035Z,38.50
2018-03-25T05:20:09.999Z,40.77
2018-03-25T05:22:37.576Z,38.60
2018-03-25T05:25:05.248Z,43.23
2018-03-25T05:27:33.036Z,41.27
2018-03-25T05:30:00.707Z,45.70
2018-03-25T05:32:28.570Z,40.17
2018-03-25T05:34:56.210Z,41.67
2018-03-25T05:37:23.808Z,41.80
2018-03-25T05:39:51.465Z,39.93
2018-03-25T05:42:19.060Z,46.17
2018-03-25T05:44:46.842Z,44.70
2018-03-25T05:47:14.583Z,43.07
2018-03-25T05:49:42.375Z,46.13
2018-03-25T05:52:10.046Z,45.03
2018-03-25T05:54:37.725Z,42.83
2018-03-25T05:57:05.317Z,42.80
2018-03-25T05:59:32.941Z,43.90
2018-03-25T06:02:00.688Z,42.10
2018-03-25T06:04:28.694Z,47.93
2018-03-25T06:06:56.559Z,55.97
2018-03-25T06:09:24.474Z,41.20
2018-03-25T06:11:52.087Z,52.63
2018-03-25T06:14:19.707Z,45.03
2018-03-25T06:16:47.418Z,44.70
2018-03-25T06:19:15.001Z,44.80
2018-03-25T06:21:42.677Z,50.70
2018-03-25T06:24:10.689Z,43.07
2018-03-25T06:26:38.347Z,42.13
2018-03-25T06:29:05.940Z,39.83
2018-03-25T06:31:33.635Z,42.63
2018-03-25T06:34:01.219Z,49.10
2018-03-25T06:36:28.814Z,51.73
2018-03-25T06:38:56.439Z,45.20
2018-03-25T06:41:24.570Z,45.03
2018-03-25T06:43:52.227Z,47.77
2018-03-25T06:46:19.900Z,45.10
2018-03-25T06:48:47.612Z,43.50
2018-03-25T06:51:15.271Z,47.13
2018-03-25T06:53:42.907Z,49.43
2018-03-25T06:56:10.535Z,47.87
2018-03-25T06:58:38.394Z,45.23
2018-03-25T07:01:06.029Z,48.27
2018-03-25T07:03:34.023Z,53.77
2018-03-25T07:06:01.891Z,46.00
2018-03-25T07:08:29.527Z,55.17
2018-03-25T07:10:57.272Z,55.30
2018-03-25T07:13:25.284Z,52.70
2018-03-25T07:15:53.255Z,43.27
2018-03-25T07:18:20.870Z,47.73
2018-03-25T07:20:48.486Z,46.50
2018-03-25T07:23:17.266Z,44.80
2018-03-25T07:25:45.897Z,41.33
2018-03-25T07:28:14.521Z,44.60
2018-03-25T07:30:42.200Z,47.13
2018-03-25T07:33:10.923Z,50.87
2018-03-25T07:35:38.630Z,47.87
2018-03-25T07:38:06.438Z,52.07
2018-03-25T07:40:34.060Z,57.67
2018-03-25T07:43:02.149Z,45.53
2018-03-25T07:45:29.814Z,44.57
2018-03-25T07:47:57.547Z,45.47
2018-03-25T07:50:25.153Z,42.23
2018-03-25T07:52:52.775Z,45.63
2018-03-25T07:55:20.424Z,52.50
2018-03-25T07:57:48.031Z,57.57
2018-03-25T08:00:15.861Z,46.73
2018-03-25T08:02:43.996Z,50.50
2018-03-25T08:05:11.589Z,46.13
2018-03-25T08:07:39.178Z,46.73
2018-03-25T08:10:06.879Z,49.67
2018-03-25T08:12:34.516Z,43.60
2018-03-25T08:15:02.354Z,41.00
2018-03-25T08:17:30.024Z,47.00
2018-03-25T08:19:57.905Z,46.97
2018-03-25T08:22:25.736Z,52.20
2018-03-25T08:24:53.426Z,49.97
2018-03-25T08:27:21.065Z,48.87
2018-03-25T08:29:48.685Z,43.07
2018-03-25T08:32:16.265Z,43.83
2018-03-25T08:34:43.980Z,42.03
2018-03-25T08:37:11.650Z,50.93
2018-03-25T08:39:39.906Z,46.83
2018-03-25T08:42:08.055Z,44.97
2018-03-25T08:44:35.653Z,43.03
2018-03-25T08:47:03.235Z,46.33
2018-03-25T08:49:30.965Z,47.17
2018-03-25T08:51:58.628Z,48.50
2018-03-25T08:54:26.257Z,54.67
2018-03-25T08:56:54.287Z,49.93
2018-03-25T08:59:22.250Z,51.73
2018-03-25T09:01:49.902Z,50.30
2018-03-25T09:04:17.525Z,44.77
2018-03-25T09:06:45.210Z,50.10
2018-03-25T09:09:12.865Z,44.93
2018-03-25T09:11:40.470Z,46.20
2018-03-25T09:14:08.081Z,49.80
2018-03-25T09:16:36.160Z,47.17
2018-03-25T09:19:03.767Z,48.90
2018-03-25T09:21:31.448Z,45.17
2018-03-25T09:23:59.111Z,48.73
2018-03-25T09:26:26.938Z,48.50
2018-03-25T09:28:54.535Z,48.27
2018-03-25T09:31:22.465Z,47.10
2018-03-25T09:33:50.355Z,55.40
2018-03-25T09:36:18.310Z,50.90
2018-03-25T09:38:45.968Z,49.47
2018-03-25T09:41:13.590Z,48.00
2018-03-25T09:43:41.187Z,42.93
2018-03-25T09:46:08.842Z,49.40
2018-03-25T09:48:36.480Z,46.43
2018-03-25T09:51:04.105Z,49.80
2018-03-25T09:53:35.183Z,52.30
2018-03-25T09:56:02.775Z,49.07
2018-03-25T09:58:30.396Z,46.40
2018-03-25T10:01:03.813Z,56.17
2018-03-25T10:03:31.878Z,44.87
2018-03-25T10:05:59.620Z,46.53
2018-03-25T10:08:29.823Z,48.43
2018-03-25T10:10:57.463Z,49.20
2018-03-25T10:13:25.109Z,49.87
2018-03-25T10:15:52.754Z,59.33
2018-03-25T10:18:20.750Z,42.80
2018-03-25T10:20:48.370Z,45.97
2018-03-25T10:23:16.390Z,48.03
2018-03-25T10:25:44.027Z,43.93
2018-03-25T10:28:11.628Z,46.83
2018-03-25T10:30:39.269Z,49.10
2018-03-25T10:33:07.063Z,48.60
2018-03-25T10:35:35.154Z,47.90
2018-03-25T10:38:02.828Z,46.47
2018-03-25T10:40:30.418Z,47.00
2018-03-25T10:42:58.046Z,44.93
2018-03-25T10:45:25.655Z,44.20
2018-03-25T10:47:54.299Z,45.93
2018-03-25T10:50:21.900Z,47.57
2018-03-25T10:52:49.496Z,46.83
2018-03-25T10:55:17.159Z,45.07
2018-03-25T10:57:44.780Z,43.57
2018-03-25T11:00:12.491Z,44.03
2018-03-25T11:02:40.116Z,47.57
2018-03-25T11:05:07.734Z,49.77
2018-03-25T11:07:35.745Z,43.13
2018-03-25T11:10:03.386Z,43.40
2018-03-25T11:12:31.123Z,48.00
2018-03-25T11:15:02.697Z,47.63
2018-03-25T11:17:30.312Z,47.30
2018-03-25T11:19:58.278Z,35.73
2018-03-25T11:22:25.962Z,39.07
2018-03-25T11:24:53.559Z,40.83
2018-03-25T11:27:21.289Z,41.70
2018-03-25T11:29:49.138Z,40.23
2018-03-25T11:32:16.768Z,39.90
2018-03-25T11:34:44.459Z,44.20
2018-03-25T11:37:12.108Z,48.53
2018-03-25T11:39:40.161Z,41.50
2018-03-25T11:42:08.021Z,36.03
2018-03-25T11:44:35.694Z,40.50
2018-03-25T11:47:03.353Z,41.30
2018-03-25T11:49:31.223Z,38.33
2018-03-25T11:51:58.863Z,38.23
2018-03-25T11:54:26.752Z,38.40
2018-03-25T11:56:54.389Z,38.93
2018-03-25T11:59:22.479Z,27.40
2018-03-25T12:01:50.375Z,33.00
2018-03-25T12:04:17.990Z,33.10
2018-03-25T12:06:45.639Z,36.27
2018-03-25T12:09:13.648Z,33.30
2018-03-25T12:11:41.405Z,34.30
2018-03-25T12:14:09.387Z,32.07
2018-03-25T12:16:36.980Z,34.97
2018-03-25T12:19:05.015Z,32.17
2018-03-25T12:21:33.088Z,41.80
2018-03-25T12:24:00.673Z,33.70
2018-03-25T12:26:28.287Z,33.47
2018-03-25T12:28:56.582Z,32.77
2018-03-25T12:31:24.437Z,35.33
2018-03-25T12:33:52.432Z,28.07
2018-03-25T12:36:20.391Z,27.00
2018-03-25T12:38:47.982Z,30.30
2018-03-25T12:41:15.929Z,36.10
2018-03-25T12:43:43.546Z,33.90
2018-03-25T12:46:11.511Z,31.67
2018-03-25T12:48:39.100Z,28.60
2018-03-25T12:51:06.703Z,31.77
2018-03-25T12:53:34.332Z,34.60
2018-03-25T12:56:02.060Z,28.83
2018-03-25T12:58:29.660Z,29.60
2018-03-25T13:00:57.433Z,31.83
2018-03-25T13:03:25.022Z,27.70
2018-03-25T13:05:52.876Z,26.83
2018-03-25T13:08:20.884Z,25.50
2018-03-25T13:10:48.478Z,34.80
2018-03-25T13:13:16.079Z,31.90
2018-03-25T13:15:44.121Z,30.80
2018-03-25T13:18:11.775Z,37.47
2018-03-25T13:20:39.427Z,28.20
2018-03-25T13:23:07.068Z,31.50
2018-03-25T13:25:34.700Z,29.20
2018-03-25T13:28:02.370Z,33.77
2018-03-25T13:30:30.015Z,28.10
2018-03-25T13:32:57.622Z,33.30
2018-03-25T13:35:25.514Z,40.23
2018-03-25T13:37:53.159Z,39.07
2018-03-25T13:40:20.818Z,47.70
2018-03-25T13:42:48.436Z,43.63
2018-03-25T13:45:16.119Z,43.70
2018-03-25T13:47:43.746Z,43.00
2018-03-25T13:50:11.371Z,37.30
2018-03-25T13:52:39.056Z,44.17
2018-03-25T13:55:06.753Z,37.80
2018-03-25T13:57:34.349Z,33.20
2018-03-25T14:00:02.001Z,44.70
2018-03-25T14:02:29.601Z,38.50
2018-03-25T14:04:57.467Z,37.10
2018-03-25T14:07:25.094Z,45.07
2018-03-25T14:09:52.695Z,43.27
2018-03-25T14:12:20.329Z,49.60
2018-03-25T14:14:47.976Z,45.77
2018-03-25T14:17:15.621Z,40.53
2018-03-25T14:19:43.461Z,49.40
2018-03-25T14:22:11.319Z,47.83
2018-03-25T14:24:38.962Z,41.27
2018-03-25T14:27:06.557Z,42.93
2018-03-25T14:29:34.200Z,51.97
2018-03-25T14:32:01.873Z,52.00
2018-03-25T14:34:29.471Z,54.97
2018-03-25T14:36:57.143Z,59.27
2018-03-25T14:39:24.750Z,50.73
2018-03-25T14:41:52.708Z,57.90
2018-03-25T14:44:20.365Z,59.33
2018-03-25T14:46:47.970Z,54.67
2018-03-25T14:49:15.568Z,55.23
2018-03-25T14:51:43.306Z,52.60
2018-03-25T14:54:11.049Z,49.10
2018-03-25T14:56:38.658Z,56.40
2018-03-25T14:59:06.283Z,53.70
2018-03-25T15:01:33.919Z,58.53
2018-03-25T15:04:01.525Z,58.07
2018-03-25T15:06:29.300Z,64.93
2018-03-25T15:08:56.942Z,65.80
2018-03-25T15:11:24.937Z,64.20
2018-03-25T15:13:52.570Z,57.43
2018-03-25T15:16:20.226Z,54.73
2018-03-25T15:18:47.830Z,56.93
2018-03-25T15:21:15.444Z,64.00
2018-03-25T15:23:43.089Z,58.00
2018-03-25T15:26:10.703Z,59.77
2018-03-25T15:28:38.400Z,60.80
2018-03-25T15:31:06.264Z,71.43
2018-03-25T15:33:33.974Z,67.37
2018-03-25T15:36:01.999Z,60.83
2018-03-25T15:38:29.623Z,62.10
2018-03-25T15:40:57.332Z,61.53
2018-03-25T15:43:25.185Z,59.30
2018-03-25T15:45:52.831Z,58.03
2018-03-25T15:48:20.468Z,66.97
2018-03-25T15:50:48.479Z,57.67
2018-03-25T15:53:16.147Z,59.97
2018-03-25T15:55:43.808Z,72.00
2018-03-25T15:58:11.661Z,68.70
2018-03-25T16:00:39.241Z,64.70
2018-03-25T16:03:06.924Z,66.40
2018-03-25T16:05:34.525Z,68.93
2018-03-25T16:08:02.355Z,71.33
2018-03-25T16:10:29.997Z,71.50
2018-03-25T16:12:57.634Z,64.60
2018-03-25T16:15:25.350Z,70.43
2018-03-25T16:17:52.932Z,80.87
2018-03-25T16:20:20.610Z,70.20
2018-03-25T16:22:48.245Z,69.70
2018-03-25T16:25:15.974Z,79.27
2018-03-25T16:27:43.618Z,77.40
2018-03-25T16:30:11.247Z,75.80
2018-03-25T16:32:38.884Z,79.03
2018-03-25T16:35:06.507Z,75.33
2018-03-25T16:37:34.106Z,79.03
2018-03-25T16:40:01.817Z,78.30
2018-03-25T16:42:29.477Z,71.87
2018-03-25T16:44:57.377Z,86.93
2018-03-25T16:47:24.977Z,88.43
2018-03-25T16:49:52.891Z,90.33
2018-03-25T16:52:20.599Z,81.73
2018-03-25T16:54:48.252Z,88.60
2018-03-25T16:57:15.864Z,82.90
2018-03-25T16:59:43.918Z,86.70
2018-03-25T17:02:11.514Z,99.27
2018-03-25T17:04:39.137Z,93.97
2018-03-25T17:07:06.779Z,95.67
2018-03-25T17:09:34.755Z,98.53
2018-03-25T17:12:02.363Z,95.63
2018-03-25T17:14:29.986Z,91.07
2018-03-25T17:16:57.678Z,93.57
2018-03-25T17:19:25.446Z,97.97
2018-03-25T17:21:53.119Z,92.60
2018-03-25T17:24:21.090Z,102.90
2018-03-25T17:26:48.701Z,91.20
2018-03-25T17:29:16.603Z,110.97
2018-03-25T17:31:44.245Z,103.97
2018-03-25T17:34:11.872Z,97.23
2018-03-25T17:36:39.473Z,98.10
2018-03-25T17:39:07.371Z,107.67
2018-03-25T17:41:34.966Z,105.67
2018-03-25T17:44:02.761Z,106.17
2018-03-25T17:46:30.660Z,95.37
2018-03-25T17:48:58.253Z,96.90
2018-03-25T17:51:25.917Z,102.70
2018-03-25T17:53:53.548Z,102.07
2018-03-25T17:56:21.151Z,86.03
2018-03-25T17:58:48.773Z,100.10
2018-03-25T18:01:16.375Z,97.27
2018-03-25T18:03:43.993Z,111.60
2018-03-25T18:06:11.588Z,103.17
2018-03-25T18:08:39.227Z,94.20
2018-03-25T18:11:07.182Z,99.63
2018-03-25T18:13:35.048Z,96.63
2018-03-25T18:16:02.715Z,107.87
2018-03-25T18:18:30.681Z,102.00
2018-03-25T18:20:58.357Z,93.00
2018-03-25T18:23:25.977Z,99.47
2018-03-25T18:26:04.665Z,102.60
2018-03-25T18:28:32.597Z,105.83
2018-03-25T18:31:00.212Z,105.93
2018-03-25T18:33:27.908Z,104.63
2018-03-25T18:35:55.593Z,122.57
2018-03-25T18:38:23.230Z,103.80
2018-03-25T18:40:50.861Z,113.47
2018-03-25T18:43:18.550Z,102.87
2018-03-25T18:45:46.377Z,105.80
2018-03-25T18:48:13.974Z,116.63
2018-03-25T18:50:41.944Z,109.47
2018-03-25T18:53:09.626Z,111.40
2018-03-25T18:55:39.065Z,116.73
2018-03-25T18:58:06.946Z,117.63
2018-03-25T19:00:34.548Z,110.63
2018-03-25T19:03:02.311Z,118.50
2018-03-25T19:05:29.906Z,110.80
2018-03-25T19:07:57.548Z,108.30
2018-03-25T19:10:25.521Z,116.47
2018-03-25T19:12:53.507Z,103.30
2018-03-25T19:15:21.300Z,105.37
2018-03-25T19:17:48.902Z,111.73
2018-03-25T19:20:16.657Z,120.10
2018-03-25T19:22:44.328Z,111.73
2018-03-25T19:25:11.967Z,109.87
2018-03-25T19:27:39.627Z,109.93
2018-03-25T19:30:07.288Z,109.30
2018-03-25T19:32:35.079Z,115.53
2018-03-25T19:35:03.019Z,120.50
2018-03-25T19:37:30.586Z,124.37
2018-03-25T19:39:58.242Z,109.77
2018-03-25T19:42:25.873Z,106.50
2018-03-25T19:44:53.470Z,111.73
2018-03-25T19:47:21.117Z,115.33
2018-03-25T19:49:48.755Z,109.40
2018-03-25T19:52:16.365Z,117.77
2018-03-25T19:54:43.998Z,118.50
2018-03-25T19:57:11.588Z,134.83
2018-03-25T19:59:39.243Z,118.43
2018-03-25T20:02:06.872Z,111.87
2018-03-25T20:04:34.864Z,114.77
2018-03-25T20:07:02.462Z,126.03
2018-03-25T20:09:30.102Z,106.77
2018-03-25T20:11:57.806Z,111.70
2018-03-25T20:14:25.782Z,117.97
2018-03-25T20:16:53.757Z,126.87
2018-03-25T20:19:21.410Z,113.67
2018-03-25T20:21:49.428Z,103.50
2018-03-25T20:24:17.017Z,121.40
2018-03-25T20:26:44.874Z,116.47
2018-03-25T20:29:12.508Z,105.27
2018-03-25T20:31:40.120Z,106.20
2018-03-25T20:34:07.983Z,106.20
2018-03-25T20:36:35.627Z,110.63
2018-03-25T20:39:03.322Z,116.97
2018-03-25T20:41:30.920Z,108.90
2018-03-25T20:43:59.006Z,117.87
2018-03-25T20:46:26.619Z,119.80
2018-03-25T20:48:54.272Z,129.90
2018-03-25T20:51:21.929Z,110.10
2018-03-25T20:53:49.567Z,121.13
2018-03-25T20:56:17.231Z,105.47
2018-03-25T20:58:44.920Z,106.70
2018-03-25T21:01:12.713Z,100.53
2018-03-25T21:03:40.322Z,104.63
2018-03-25T21:06:07.912Z,111.27
2018-03-25T21:08:35.874Z,106.20
2018-03-25T21:11:03.468Z,94.90
2018-03-25T21:13:31.075Z,99.10
2018-03-25T21:15:59.377Z,97.77
2018-03-25T21:18:27.017Z,94.13
2018-03-25T21:20:54.607Z,92.23
2018-03-25T21:23:22.670Z,107.40
2018-03-25T21:25:50.288Z,91.43
2018-03-25T21:28:17.900Z,111.67
2018-03-25T21:30:45.520Z,100.53
2018-03-25T21:33:13.173Z,101.57
2018-03-25T21:35:40.781Z,98.83
2018-03-25T21:38:08.752Z,110.30
2018-03-25T21:40:36.418Z,97.67
2018-03-25T21:43:04.059Z,100.77
2018-03-25T21:45:31.945Z,103.17
2018-03-25T21:47:59.630Z,90.47
2018-03-25T21:50:27.350Z,104.20
2018-03-25T21:52:55.041Z,103.77
2018-03-25T21:55:22.916Z,108.93
2018-03-25T21:57:50.549Z,101.17
2018-03-25T22:00:18.414Z,92.63
2018-03-25T22:02:46.057Z,100.50
2018-03-25T22:05:13.649Z,84.90
2018-03-25T22:07:41.728Z,82.30
2018-03-25T22:10:09.584Z,97.53
2018-03-25T22:12:37.162Z,91.37
2018-03-25T22:15:04.899Z,103.73
2018-03-25T22:17:32.503Z,95.13
2018-03-25T22:20:00.129Z,87.57
2018-03-25T22:22:28.280Z,89.63
2018-03-25T22:24:55.933Z,84.33
2018-03-25T22:27:23.829Z,99.03
2018-03-25T22:29:51.654Z,98.03
2018-03-25T22:32:19.293Z,86.60
2018-03-25T22:34:46.974Z,91.57
2018-03-25T22:37:14.575Z,95.37
2018-03-25T22:39:42.190Z,97.70
2018-03-25T22:42:09.774Z,92.40
2018-03-25T22:44:37.414Z,93.10
2018-03-25T22:47:05.069Z,102.73
2018-03-25T22:49:32.675Z,96.73
2018-03-25T22:52:00.281Z,99.03
2018-03-25T22:54:27.892Z,97.20
2018-03-25T22:56:55.518Z,80.23
2018-03-25T22:59:23.213Z,89.23
2018-03-25T23:01:50.804Z,103.90
2018-03-25T23:04:18.442Z,86.90
2018-03-25T23:06:46.290Z,95.63
2018-03-25T23:09:13.888Z,90.47
2018-03-25T23:11:41.476Z,99.03
2018-03-25T23:14:09.197Z,91.37
2018-03-25T23:16:36.854Z,79.63
2018-03-25T23:19:04.455Z,89.13
2018-03-25T23:21:32.052Z,91.60
2018-03-25T23:23:59.695Z,101.57
2018-03-25T23:26:27.280Z,91.10
2018-03-25T23:28:55.178Z,86.60
2018-03-25T23:31:22.869Z,102.30
2018-03-25T23:33:50.524Z,89.60
2018-03-25T23:36:18.197Z,96.63
2018-03-25T23:38:45.793Z,88.27
2018-03-25T23:41:13.400Z,99.73
2018-03-25T23:43:41.424Z,73.63
2018-03-25T23:46:09.032Z,83.77
2018-03-25T23:48:36.653Z,86.17
2018-03-25T23:51:04.304Z,76.23
2018-03-25T23:53:31.906Z,86.73
2018-03-25T23:55:59.536Z,82.13
2018-03-25T23:58:27.241Z,74.73
